Latest Coastal Weather Observations for Cairns

IDQ60701

Issued at 7:06 pm EST Friday 6 March 2015 (issued every 10 minutes, with the page automatically refreshed every 10 minutes)

About coastal observations | Map of coastal stations | Coastal observations for QLD | Marine services | Other Formats
Station Details ID: 031011 Name: CAIRNS AERO Lat: -16.87 Lon: 145.75 Height: 2.22 m
Data from the previous 72 hours. | See also: Recent months at Cairns
Date/Time
EST
Temp

°C
Wind Pressure Rain
since 9am
mm
Weather Cloud Vis
km
Sea
Height
m
Swell
Dir
 
Speed
knots
Gust
knots
hPa Trend Height
m
Period
s
Dir
06/07:00pm 28.5 NNE 4 6 1004.6 - 0.0 - Mostly clear 10 - - - -
06/06:30pm 28.6 N 5 6 1004.2 - 0.0 - Mostly clear 10 - - - -
06/06:00pm 29.1 NNE 6 7 1003.9 - 0.0 - Mostly clear 10 - - - -
06/05:30pm 30.0 NNE 7 8 1003.7 - 0.0 - Mostly clear 10 - - - -
06/05:00pm 30.2 NNE 6 9 1003.8 - 0.0 - Mostly clear 10 - - - -
06/04:30pm 30.6 NNE 7 9 1003.8 - 0.0 - Mostly clear 10 - - - -
06/04:00pm 30.7 NNE 7 10 1004.0 - 0.0 - Mostly clear 10 - - - -
06/03:30pm 30.8 NNE 7 10 1003.9 - 0.0 - Mostly clear 10 - - - -
06/03:00pm 30.8 NNE 7 10 1003.9 R 0.0 Fine Partly cloudy 30 - - - -
06/02:30pm 31.5 N 7 13 1004.0 - 0.0 - Mostly clear 10 - - - -
06/02:00pm 30.5 NNE 9 11 1004.2 - 0.0 - Mostly clear 10 - - - -
06/01:30pm 31.0 NNE 7 10 1004.6 - 0.0 - Mostly clear 10 - - - -
06/01:00pm 31.7 NNE 8 10 1004.9 - 0.0 - Mostly clear 10 - - - -
06/12:00pm 31.4 NE 8 10 1005.6 - 0.0 - Mostly clear 10 - - - -
06/11:30am 31.2 NE 7 9 1006.0 - 0.0 - Mostly clear 10 - - - -
06/11:00am 30.6 NNE 6 8 1006.4 - 0.0 - Mostly clear 10 - - - -
06/10:30am 30.1 W 4 7 1006.8 - 0.0 - Mostly clear 10 - - - -
06/10:00am 29.2 NE 3 5 1007.0 - 0.0 - Mostly clear 10 - - - -
06/09:30am 28.4 CALM 0 0 1007.0 - 0.0 - Mostly clear 10 - - - -
06/09:00am 27.8 SW 1 4 1007.1 F 0.2 Fine Mostly cloudy 25 - - - -
06/08:30am 27.4 SE 4 6 1007.3 - 0.2 - Mostly clear 10 - - - -
06/08:00am 26.8 SE 6 8 1007.1 - 0.2 - Mostly clear 10 - - - -
06/07:30am 26.2 S 3 5 1007.1 - 0.2 - Mostly clear 10 - - - -
06/07:00am 25.8 WSW 4 6 1006.9 - 0.2 - Mostly clear 10 - - - -
06/06:30am 24.4 W 3 4 1006.7 - 0.2 - Mostly clear 10 - - - -
06/06:00am 24.3 CALM 0 0 1006.4 - 0.2 - Mostly clear 10 - - - -
06/05:30am 24.2 CALM 0 2 1006.3 - 0.2 - Mostly clear 10 - - - -
06/05:00am 24.2 CALM 0 0 1006.2 - 0.2 - Mostly clear 10 - - - -
06/04:30am 24.6 CALM 0 0 1006.0 - 0.2 - Mostly clear 10 - - - -
06/04:00am 24.8 CALM 0 0 1005.9 - 0.2 - Mostly clear 10 - - - -
06/03:30am 25.0 CALM 0 0 1006.1 - 0.2 - Mostly clear 10 - - - -
06/03:00am 25.4 CALM 0 0 1006.1 - 0.2 - Mostly clear 10 - - - -
06/02:30am 25.4 WSW 4 6 1006.4 - 0.2 - Mostly clear 10 - - - -
06/02:00am 24.9 WNW 4 5 1006.5 - 0.2 - Mostly clear 10 - - - -
06/01:30am 25.0 CALM 0 0 1007.0 - 0.2 - Mostly clear 10 - - - -
06/01:00am 25.2 CALM 0 0 1007.5 - 0.2 - Mostly clear 10 - - - -
06/12:30am 25.2 CALM 0 0 1007.8 - 0.2 - Mostly clear 10 - - - -
 
Date/Time
EST
Temp

°C
Wind Pressure Rain
since 9am
mm
Weather Cloud Vis
km
Sea
Height
m
Swell
Dir
 
Speed
knots
Gust
knots
hPa Trend Height
m
Period
s
Dir
05/11:30pm 25.7 CALM 0 0 1008.4 - 0.2 - Mostly clear 10 - - - -
05/11:00pm 26.0 W 4 5 1008.5 - 0.2 - Mostly clear 10 - - - -
05/10:30pm 26.0 WSW 3 6 1008.3 - 0.2 - Mostly clear 10 - - - -
05/10:00pm 27.0 SW 3 4 1008.4 - 0.2 - Mostly clear 10 - - - -
05/09:30pm 27.5 SSE 3 5 1008.3 - 0.2 - Mostly clear 10 - - - -
05/09:00pm 27.5 SSE 5 7 1007.9 - 0.2 - Mostly clear 10 - - - -
05/08:30pm 28.0 SW 3 5 1007.6 - 0.2 - Mostly clear 10 - - - -
05/08:00pm 27.9 S 5 7 1007.4 - 0.2 - Mostly clear 10 - - - -
05/07:30pm 28.3 SE 9 10 1007.1 - 0.2 - Mostly clear 10 - - - -
05/07:00pm 28.5 SSE 4 7 1006.7 - 0.2 - Mostly clear 10 - - - -
05/06:30pm 29.3 SE 8 10 1006.6 - 0.2 - Mostly clear 10 - - - -
05/06:00pm 30.4 ESE 9 11 1006.2 - 0.2 - Mostly clear 10 - - - -
05/05:30pm 31.2 SE 6 9 1006.1 - 0.2 - Mostly clear 10 - - - -
05/05:00pm 31.3 SE 14 17 1005.8 - 0.2 - Mostly clear 10 - - - -
05/04:30pm 31.9 ESE 14 17 1005.5 - 0.2 - Mostly clear 10 - - - -
05/04:00pm 32.3 ESE 13 18 1005.6 - 0.2 - Mostly clear 10 - - - -
05/03:30pm 32.4 ESE 12 15 1005.9 - 0.2 - Mostly clear 10 - - - -
05/03:00pm 32.8 E 11 16 1006.0 F 0.2 Fine Partly cloudy 35 - - - -
05/02:30pm 32.5 ENE 11 16 1006.5 - 0.2 - Mostly clear 10 - - - -
05/02:00pm 32.9 E 8 11 1006.9 - 0.2 - Mostly clear 10 - - - -
05/01:30pm 32.8 ESE 9 14 1007.7 - 0.2 - Mostly clear 10 - - - -
05/01:00pm 32.9 ENE 10 14 1008.2 - 0.2 - Mostly clear 10 - - - -
05/12:30pm 32.2 ESE 9 12 1008.7 - 0.2 - Mostly clear 10 - - - -
05/12:00pm 32.0 SE 9 16 1009.0 - 0.2 - - 10 - - - -
05/11:30am 31.8 ESE 11 15 1009.7 - 0.2 - Mostly clear 10 - - - -
05/11:00am 31.6 SE 13 16 1010.1 - 0.2 - Mostly clear 10 - - - -
05/10:30am 30.9 SE 11 17 1010.4 - 0.2 - Mostly clear 10 - - - -
05/10:00am 30.3 SSE 9 14 1010.7 - 0.0 - Mostly clear 10 - - - -
05/09:30am 29.0 SSE 8 13 1010.7 - 0.0 - Mostly clear 10 - - - -
05/09:00am 27.6 S 11 16 1010.5 R 11.8 Fine Partly cloudy 25 - - - -
05/08:30am 26.1 S 9 13 1010.6 - 11.8 - Mostly clear 10 - - - -
05/08:00am 25.4 SSE 8 13 1010.3 - 11.8 - Mostly clear 10 - - - -
05/07:30am 25.2 SE 5 7 1009.8 - 11.8 - Mostly clear 10 - - - -
05/07:00am 24.6 SSE 2 4 1009.4 - 11.8 - Mostly clear 10 - - - -
05/06:30am 24.6 SE 7 8 1009.4 - 11.8 - Mostly clear 10 - - - -
05/06:00am 24.6 ESE 8 9 1008.8 - 11.8 - Cloudy 10 - - - -
05/05:30am 24.0 S 3 5 1008.3 - 11.8 - Mostly clear 10 - - - -
05/05:00am 24.0 N 1 4 1008.7 - 11.8 Showers Mostly clear 10 - - - -
05/04:30am 23.9 E 1 5 1008.4 - 11.8 Showers Mostly clear 10 - - - -
05/04:22am 24.0 CALM 0 0 1008.5 - 11.8 Thunderstorm Mostly clear 8 - - - -
05/04:05am 24.2 ENE 3 6 1008.5 - 10.8 Thunderstorm Mostly clear 5 - - - -
05/04:00am 24.2 ENE 3 6 1008.5 - 10.8 Thunderstorm Mostly clear 5 - - - -
05/03:58am 24.3 E 5 6 1008.6 - 10.0 Thunderstorm Mostly clear 5 - - - -
05/03:47am 24.5 ENE 6 8 1008.5 - 5.4 Showers Mostly clear 3 - - - -
05/03:38am 24.6 ESE 8 10 1008.7 - 4.2 Thunderstorm Mostly clear 5 - - - -
05/03:30am 24.5 SE 8 10 1008.4 - 4.2 Showers Mostly clear 5 - - - -
05/03:21am 24.8 ESE 8 10 1008.3 - 4.2 Showers Mostly clear 5 - - - -
05/03:00am 25.4 SE 3 7 1008.3 - 4.2 - Partly cloudy 5 - - - -
05/02:30am 25.4 SE 5 6 1008.7 - 4.2 - Mostly clear 10 - - - -
05/02:00am 25.9 SE 6 9 1009.0 - 4.2 - Mostly clear 10 - - - -
05/01:30am 25.1 SE 7 9 1009.2 - 4.2 - Mostly clear 10 - - - -
05/01:00am 26.0 SSE 8 11 1009.3 - 4.2 - Mostly clear 10 - - - -
05/12:30am 26.2 S 9 14 1009.4 - 4.2 - Mostly clear 10 - - - -
05/12:00am 25.3 ESE 8 10 1009.7 - 4.2 - Mostly clear 10 - - - -
 
Date/Time
EST
Temp

°C
Wind Pressure Rain
since 9am
mm
Weather Cloud Vis
km
Sea
Height
m
Swell
Dir
 
Speed
knots
Gust
knots
hPa Trend Height
m
Period
s
Dir
04/11:30pm 26.6 S 6 10 1010.2 - 4.2 - Mostly clear 10 - - - -
04/11:00pm 26.3 S 9 14 1010.3 - 4.2 - Mostly clear 10 - - - -
04/10:30pm 26.4 SSE 9 16 1010.6 - 4.2 - Partly cloudy 10 - - - -
04/10:00pm 26.4 S 9 14 1010.7 - 4.2 - Mostly clear 10 - - - -
04/09:30pm 26.3 SSE 7 10 1010.5 - 4.2 Showers Mostly clear 10 - - - -
04/09:00pm 25.7 SE 7 8 1010.2 - 4.2 - Mostly clear 10 - - - -
04/08:30pm 25.9 SSE 8 10 1010.2 - 4.2 - Mostly clear 10 - - - -
04/08:00pm 26.3 SSE 8 10 1009.8 - 4.2 - Mostly clear 10 - - - -
04/07:30pm 26.8 SSE 9 13 1009.5 - 4.2 - Mostly clear 10 - - - -
04/07:00pm 27.3 SSE 10 14 1009.4 - 4.2 - Mostly clear 10 - - - -
04/06:30pm 27.2 SSE 11 16 1009.0 - 4.2 - Mostly clear 10 - - - -
04/06:00pm 27.9 S 9 12 1008.8 - 4.2 - Mostly cloudy 10 - - - -
04/05:30pm 28.8 SSE 9 12 1008.8 - 4.2 - Mostly clear 10 - - - -
04/05:00pm 28.8 SE 13 16 1008.3 - 4.2 - Mostly clear 10 - - - -
04/04:30pm 29.0 SE 15 18 1008.1 - 4.2 - Mostly clear 10 - - - -
04/04:00pm 30.2 ESE 11 15 1008.3 - 4.2 - Mostly clear 10 - - - -
04/03:30pm 29.7 SSE 10 16 1008.3 - 4.2 - Mostly clear 10 - - - -
04/03:00pm 28.9 S 8 11 1008.3 S 4.2 Fine Mostly cloudy 30 - - - -
04/02:30pm 29.0 SE 13 17 1008.5 - 4.2 - Mostly clear 10 - - - -
04/02:16pm 28.6 SE 15 22 1008.7 - 4.2 - Mostly clear 10 - - - -
04/02:00pm 30.4 SE 14 19 1008.6 - 4.2 Showers Mostly clear 6 - - - -
04/01:30pm 29.3 S 8 12 1009.0 - 4.2 - Mostly clear 10 - - - -
04/01:00pm 28.6 S 11 16 1009.6 - 4.2 Showers Mostly clear 10 - - - -
04/12:30pm 29.1 SSW 6 8 1010.0 - 4.2 - Mostly clear 10 - - - -
04/12:00pm 27.9 S 10 15 1010.3 - 4.0 - Mostly clear 10 - - - -
04/11:30am 26.8 S 10 14 1010.7 - 4.0 - Mostly clear 10 - - - -
04/11:00am 25.8 S 10 14 1011.0 - 4.0 - Mostly clear 10 - - - -
04/10:40am 25.3 SE 8 10 1010.8 - 4.0 Showers Mostly clear 10 - - - -
04/10:30am 25.5 SE 9 11 1011.0 - 3.6 Showers Mostly clear 2 - - - -
04/10:16am 27.3 S 8 14 1011.0 - 0.0 Showers Partly cloudy 2 - - - -
04/10:10am 27.4 S 11 19 1010.8 - 0.0 Showers Partly cloudy 6 - - - -
04/10:00am 28.7 S 11 19 1010.6 - 0.0 - Partly cloudy 10 - - - -
04/09:30am 29.1 SSE 9 15 1010.4 - 0.0 - Mostly clear 10 - - - -
04/09:00am 26.7 SSE 10 15 1010.2 F 0.0 Showers Mostly cloudy 20 - - - -
04/08:30am 26.6 S 12 18 1009.9 - 0.0 - Mostly clear 10 - - - -
04/08:00am 26.5 S 8 14 1009.8 - 0.0 - Mostly clear 10 - - - -
04/07:30am 26.6 S 7 12 1009.6 - 0.0 - Mostly clear 10 - - - -
04/07:00am 25.6 S 11 15 1009.3 - 0.0 - Mostly clear 10 - - - -
04/06:30am 25.2 SW 6 10 1009.1 - 0.0 - Mostly clear 10 - - - -
04/06:00am 24.4 SE 8 13 1009.2 - 0.0 - Cloudy 10 - - - -
04/05:30am 24.7 SE 9 10 1008.8 - 0.0 - Mostly clear 10 - - - -
04/05:00am 25.6 S 8 15 1008.2 - 0.0 - Mostly clear 10 - - - -
04/04:30am 25.9 S 7 12 1008.2 - 0.0 - Mostly clear 10 - - - -
04/04:00am 25.7 S 8 13 1008.1 - 0.0 - Mostly clear 10 - - - -
04/03:30am 25.9 S 8 13 1008.4 - 0.0 - Mostly clear 10 - - - -
04/03:00am 26.2 S 7 12 1008.4 - 0.0 - Mostly clear 10 - - - -
04/02:30am 25.8 S 7 12 1008.8 - 0.0 - Mostly clear 10 - - - -
04/02:00am 24.9 ESE 7 10 1009.3 - 0.0 - Mostly clear 10 - - - -
04/01:30am 25.9 SSE 6 9 1009.7 - 0.0 - Mostly clear 10 - - - -
04/01:00am 26.3 S 6 11 1010.2 - 0.0 - Mostly clear 10 - - - -
04/12:30am 26.2 S 7 10 1010.7 - 0.0 - Mostly clear 10 - - - -
04/12:00am 26.1 S 8 11 1010.9 - 0.0 - Mostly clear 10 - - - -
 
Date/Time
EST
Temp

°C
Wind Pressure Rain
since 9am
mm
Weather Cloud Vis
km
Sea
Height
m
Swell
Dir
 
Speed
knots
Gust
knots
hPa Trend Height
m
Period
s
Dir
03/11:30pm 26.2 S 7 10 1011.0 - 0.0 - Mostly clear 10 - - - -
03/11:00pm 26.2 S 6 9 1011.0 - 0.0 - Mostly clear 10 - - - -
03/10:30pm 26.3 S 6 10 1011.1 - 0.0 - Mostly clear 10 - - - -
03/10:00pm 26.3 SSE 6 9 1011.1 - 0.0 - Mostly clear 10 - - - -
03/09:30pm 26.8 SSE 9 12 1010.9 - 0.0 - Mostly clear 10 - - - -
03/09:00pm 26.5 SSE 6 9 1010.5 - 0.0 - Mostly clear 10 - - - -
03/08:30pm 27.0 S 6 9 1010.5 - 0.0 - Mostly clear 10 - - - -
03/08:00pm 27.2 S 4 6 1010.1 - 0.0 - Mostly clear 10 - - - -
03/07:30pm 27.8 SE 11 15 1009.5 - 0.0 - Mostly clear 10 - - - -

Other Formats:

Comma delimited format used in spreadsheet applications
http://www.bom.gov.au/fwo/IDQ60701/IDQ60701.94287.axf

JavaScript Object Notation format (JSON) in row-major order
http://www.bom.gov.au/fwo/IDQ60701/IDQ60701.94287.json